createdAt,value
2023-05-04T00:01:18.590Z,28.80
2023-05-04T00:03:46.991Z,26.53
2023-05-04T00:06:16.039Z,26.10
2023-05-04T00:08:44.040Z,23.30
2023-05-04T00:11:12.136Z,24.50
2023-05-04T00:13:40.101Z,25.67
2023-05-04T00:16:11.058Z,24.77
2023-05-04T00:18:39.533Z,26.53
2023-05-04T00:21:08.067Z,22.60
2023-05-04T00:23:36.203Z,26.03
2023-05-04T00:26:04.265Z,21.53
2023-05-04T00:28:32.236Z,28.60
2023-05-04T00:31:00.266Z,24.20
2023-05-04T00:33:29.566Z,22.87
2023-05-04T00:35:57.572Z,20.37
2023-05-04T00:38:25.574Z,27.30
2023-05-04T00:40:53.591Z,21.40
2023-05-04T00:43:21.572Z,22.63
2023-05-04T00:45:49.665Z,24.80
2023-05-04T00:48:17.727Z,25.53
2023-05-04T00:50:47.192Z,20.33
2023-05-04T00:53:15.443Z,18.87
2023-05-04T00:55:43.394Z,23.60
2023-05-04T00:58:11.570Z,23.10
2023-05-04T01:00:39.612Z,23.00
2023-05-04T01:03:07.835Z,24.53
2023-05-04T01:05:39.930Z,25.33
2023-05-04T01:08:14.686Z,27.67
2023-05-04T01:10:50.999Z,23.90
2023-05-04T01:13:22.453Z,24.13
2023-05-04T01:15:50.911Z,30.20
2023-05-04T01:18:18.936Z,22.83
2023-05-04T01:20:46.987Z,24.50
2023-05-04T01:23:16.612Z,24.43
2023-05-04T01:25:50.581Z,24.83
2023-05-04T01:28:21.967Z,23.33
2023-05-04T01:30:54.607Z,25.63
2023-05-04T01:33:23.325Z,27.53
2023-05-04T01:35:51.739Z,25.07
2023-05-04T01:38:21.640Z,24.20
2023-05-04T01:40:49.664Z,26.70
2023-05-04T01:43:18.016Z,26.00
2023-05-04T01:45:45.994Z,23.90
2023-05-04T01:48:13.957Z,25.20
2023-05-04T01:50:42.231Z,23.73
2023-05-04T01:53:10.180Z,23.43
2023-05-04T01:55:39.515Z,25.13
2023-05-04T01:58:07.497Z,23.33
2023-05-04T02:00:35.493Z,21.17
2023-05-04T02:03:03.666Z,27.30
2023-05-04T02:05:31.720Z,23.87
2023-05-04T02:07:59.826Z,26.67
2023-05-04T02:10:27.933Z,23.97
2023-05-04T02:12:57.304Z,27.77
2023-05-04T02:15:25.347Z,25.27
2023-05-04T02:17:53.435Z,25.83
2023-05-04T02:20:21.529Z,25.43
2023-05-04T02:22:49.461Z,25.03
2023-05-04T02:25:17.627Z,26.67
2023-05-04T02:27:45.607Z,21.90
2023-05-04T02:30:16.212Z,23.33
2023-05-04T02:32:44.242Z,26.03
2023-05-04T02:35:12.992Z,25.10
2023-05-04T02:37:41.003Z,25.27
2023-05-04T02:40:10.047Z,28.80
2023-05-04T02:42:38.052Z,23.47
2023-05-04T02:45:07.511Z,25.03
2023-05-04T02:47:36.920Z,25.23
2023-05-04T02:50:06.238Z,23.80
2023-05-04T02:52:34.362Z,27.33
2023-05-04T02:55:02.648Z,22.00
2023-05-04T02:57:30.748Z,22.93
2023-05-04T02:59:58.723Z,24.93
2023-05-04T03:02:26.787Z,23.60
2023-05-04T03:04:56.192Z,22.40
2023-05-04T03:07:24.151Z,23.80
2023-05-04T03:09:52.133Z,22.50
2023-05-04T03:12:20.662Z,25.07
2023-05-04T03:14:48.660Z,20.90
2023-05-04T03:17:16.649Z,22.73
2023-05-04T03:19:44.622Z,22.77
2023-05-04T03:22:13.912Z,23.67
2023-05-04T03:24:41.937Z,25.53
2023-05-04T03:27:10.082Z,21.00
2023-05-04T03:29:38.063Z,19.07
2023-05-04T03:32:06.879Z,21.00
2023-05-04T03:34:35.032Z,20.40
2023-05-04T03:37:02.975Z,19.13
2023-05-04T03:39:32.323Z,20.57
2023-05-04T03:42:01.006Z,21.90
2023-05-04T03:44:29.005Z,24.63
2023-05-04T03:46:56.982Z,20.70
2023-05-04T03:49:24.936Z,22.00
2023-05-04T03:51:52.952Z,19.70
2023-05-04T03:54:20.968Z,22.60
2023-05-04T03:56:50.311Z,19.60
2023-05-04T03:59:18.340Z,22.03
2023-05-04T04:01:46.337Z,27.63
2023-05-04T04:04:14.447Z,20.37
2023-05-04T04:06:43.594Z,20.70
2023-05-04T04:09:11.593Z,19.87
2023-05-04T04:11:39.572Z,19.27
2023-05-04T04:14:08.981Z,18.63
2023-05-04T04:16:37.570Z,19.37
2023-05-04T04:19:06.764Z,17.50
2023-05-04T04:21:34.790Z,19.30
2023-05-04T04:24:02.794Z,16.27
2023-05-04T04:26:30.779Z,17.67
2023-05-04T04:28:58.781Z,25.03
2023-05-04T04:31:28.204Z,19.13
2023-05-04T04:33:56.179Z,18.97
2023-05-04T04:36:24.728Z,16.77
2023-05-04T04:38:52.711Z,19.00
2023-05-04T04:41:20.795Z,16.57
2023-05-04T04:43:48.796Z,18.00
2023-05-04T04:46:16.802Z,17.23
2023-05-04T04:48:46.669Z,20.93
2023-05-04T04:51:14.677Z,15.57
2023-05-04T04:53:42.732Z,18.27
2023-05-04T04:56:10.761Z,20.27
2023-05-04T04:58:38.747Z,18.33
2023-05-04T05:01:08.317Z,20.43
2023-05-04T05:03:36.395Z,21.40
2023-05-04T05:06:05.881Z,20.87
2023-05-04T05:08:34.954Z,23.67
2023-05-04T05:11:03.383Z,20.93
2023-05-04T05:13:31.541Z,25.00
2023-05-04T05:15:59.607Z,21.00
2023-05-04T05:18:29.307Z,19.27
2023-05-04T05:20:57.829Z,20.97
2023-05-04T05:23:27.632Z,22.43
2023-05-04T05:25:55.881Z,18.40
2023-05-04T05:28:24.044Z,18.10
2023-05-04T05:30:52.394Z,22.03
2023-05-04T05:33:20.569Z,19.63
2023-05-04T05:35:48.744Z,21.77
2023-05-04T05:38:17.688Z,21.00
2023-05-04T05:40:48.626Z,23.53
2023-05-04T05:43:16.678Z,18.73
2023-05-04T05:45:44.660Z,26.57
2023-05-04T05:48:12.653Z,22.97
2023-05-04T05:50:40.744Z,17.27
2023-05-04T05:53:08.696Z,17.57
2023-05-04T05:55:36.683Z,16.73
2023-05-04T05:58:06.666Z,18.70
2023-05-04T06:00:34.604Z,20.30
2023-05-04T06:03:02.697Z,20.20
2023-05-04T06:05:30.787Z,24.90
2023-05-04T06:07:58.779Z,17.83
2023-05-04T06:10:26.884Z,22.47
2023-05-04T06:12:54.906Z,18.90
2023-05-04T06:15:24.380Z,19.37
2023-05-04T06:17:52.441Z,18.03
2023-05-04T06:20:20.611Z,17.00
2023-05-04T06:22:48.588Z,18.70
2023-05-04T06:25:16.580Z,15.87
2023-05-04T06:27:44.751Z,18.57
2023-05-04T06:30:13.746Z,22.57
2023-05-04T06:32:43.162Z,20.33
2023-05-04T06:35:11.766Z,13.00
2023-05-04T06:37:39.889Z,16.57
2023-05-04T06:40:09.370Z,16.73
2023-05-04T06:42:37.547Z,19.37
2023-05-04T06:45:06.408Z,22.07
2023-05-04T06:47:36.715Z,17.47
2023-05-04T06:50:10.634Z,15.23
2023-05-04T06:52:41.123Z,16.90
2023-05-04T06:55:09.617Z,16.87
2023-05-04T06:57:37.981Z,13.33
2023-05-04T07:00:07.253Z,21.40
2023-05-04T07:02:35.854Z,11.63
2023-05-04T07:05:04.140Z,19.07
2023-05-04T07:07:35.600Z,13.63
2023-05-04T07:10:04.257Z,13.13
2023-05-04T07:12:32.480Z,15.27
2023-05-04T07:15:00.487Z,12.60
2023-05-04T07:17:31.872Z,12.27
2023-05-04T07:19:59.925Z,13.70
2023-05-04T07:22:27.893Z,11.47
2023-05-04T07:24:58.762Z,12.73
2023-05-04T07:27:26.749Z,10.80
2023-05-04T07:29:54.804Z,12.30
2023-05-04T07:32:22.944Z,10.17
2023-05-04T07:34:51.218Z,9.60
2023-05-04T07:37:19.307Z,9.77
2023-05-04T07:39:47.368Z,13.63
2023-05-04T07:42:17.025Z,15.20
2023-05-04T07:44:45.054Z,12.07
2023-05-04T07:47:13.587Z,12.53
2023-05-04T07:49:41.573Z,10.00
2023-05-04T07:52:09.537Z,8.67
2023-05-04T07:54:37.568Z,9.97
2023-05-04T07:57:05.727Z,9.97
2023-05-04T07:59:35.182Z,8.57
2023-05-04T08:02:03.265Z,9.27
2023-05-04T08:04:31.665Z,9.13
2023-05-04T08:06:59.726Z,10.03
2023-05-04T08:09:27.801Z,8.73
2023-05-04T08:11:55.895Z,11.17
2023-05-04T08:14:23.903Z,12.27
2023-05-04T08:16:53.269Z,9.32
2023-05-04T08:19:21.274Z,6.55
2023-05-04T08:21:49.481Z,9.45
2023-05-04T08:24:18.636Z,11.10
2023-05-04T08:26:52.690Z,7.05
2023-05-04T08:29:28.435Z,9.27
2023-05-04T08:31:58.594Z,9.52
2023-05-04T08:34:27.613Z,5.80
2023-05-04T08:36:55.756Z,6.60
2023-05-04T08:39:23.761Z,10.13
2023-05-04T08:41:51.801Z,8.07
2023-05-04T08:44:19.851Z,8.25
2023-05-04T08:46:52.448Z,6.80
2023-05-04T08:49:22.816Z,10.10
2023-05-04T08:51:51.495Z,11.60
2023-05-04T08:54:20.145Z,5.68
2023-05-04T08:56:49.009Z,9.18
2023-05-04T08:59:20.980Z,6.45
2023-05-04T09:01:52.128Z,6.68
2023-05-04T09:04:22.426Z,6.15
2023-05-04T09:06:50.647Z,8.43
2023-05-04T09:09:18.685Z,6.95
2023-05-04T09:11:46.831Z,5.43
2023-05-04T09:14:15.348Z,7.50
2023-05-04T09:16:43.430Z,7.32
2023-05-04T09:19:19.651Z,9.43
2023-05-04T09:21:49.865Z,9.40
2023-05-04T09:24:27.877Z,4.88
2023-05-04T09:26:56.048Z,5.10
2023-05-04T09:29:25.752Z,6.82
2023-05-04T09:31:55.538Z,5.75
2023-05-04T09:34:23.678Z,5.95
2023-05-04T09:37:03.035Z,9.15
2023-05-04T09:39:31.526Z,7.20
2023-05-04T09:41:59.533Z,7.63
2023-05-04T09:44:29.803Z,9.15
2023-05-04T09:46:59.382Z,7.55
2023-05-04T09:49:34.652Z,7.20
2023-05-04T09:52:05.513Z,6.47
2023-05-04T09:54:36.403Z,11.95
2023-05-04T09:57:11.602Z,7.05
2023-05-04T09:59:40.209Z,9.63
2023-05-04T10:02:18.823Z,8.48
2023-05-04T10:04:52.009Z,7.97
2023-05-04T10:07:21.708Z,6.38
2023-05-04T10:09:51.204Z,6.90
2023-05-04T10:12:19.516Z,6.60
2023-05-04T10:14:47.734Z,7.32
2023-05-04T10:17:25.002Z,5.28
2023-05-04T10:20:08.790Z,5.47
2023-05-04T10:22:54.820Z,5.40
2023-05-04T10:25:52.356Z,9.13
2023-05-04T10:28:32.273Z,5.55
2023-05-04T10:31:00.611Z,5.38
2023-05-04T10:33:39.335Z,7.35
2023-05-04T10:36:08.112Z,6.97
2023-05-04T10:38:39.425Z,6.25
2023-05-04T10:41:17.241Z,6.40
2023-05-04T10:43:48.925Z,8.88
2023-05-04T10:46:18.686Z,8.23
2023-05-04T10:48:46.825Z,7.70
2023-05-04T10:51:22.811Z,16.75
2023-05-04T10:53:53.129Z,6.70
2023-05-04T10:56:23.329Z,5.80
2023-05-04T10:58:51.452Z,12.18
2023-05-04T11:01:20.356Z,8.05
2023-05-04T11:03:49.238Z,6.93
2023-05-04T11:06:19.590Z,7.88
2023-05-04T11:09:01.971Z,8.65
2023-05-04T11:11:30.568Z,9.90
2023-05-04T11:13:58.830Z,26.42
2023-05-04T11:16:27.969Z,25.58
2023-05-04T11:18:56.164Z,9.80
2023-05-04T11:21:28.242Z,12.70
2023-05-04T11:23:56.962Z,5.75
2023-05-04T11:26:26.766Z,6.97
2023-05-04T11:28:54.835Z,10.07
2023-05-04T11:31:23.540Z,14.27
2023-05-04T11:33:53.237Z,8.80
2023-05-04T11:36:22.520Z,10.20
2023-05-04T11:38:51.135Z,7.85
2023-05-04T11:41:19.124Z,8.60
2023-05-04T11:43:48.831Z,8.27
2023-05-04T11:46:17.467Z,5.45
2023-05-04T11:48:45.854Z,20.30
2023-05-04T11:51:14.360Z,7.88
2023-05-04T11:53:42.721Z,9.23
2023-05-04T11:56:10.761Z,6.05
2023-05-04T11:58:38.769Z,6.63
2023-05-04T12:01:08.164Z,8.65
2023-05-04T12:03:52.958Z,9.88
2023-05-04T12:06:32.078Z,12.90
2023-05-04T12:09:04.321Z,5.53
2023-05-04T12:11:32.335Z,9.73
2023-05-04T12:14:04.818Z,15.15
2023-05-04T12:16:34.842Z,28.98
2023-05-04T12:19:05.071Z,11.32
2023-05-04T12:21:34.062Z,10.35
2023-05-04T12:24:03.346Z,12.77
2023-05-04T12:26:31.416Z,6.88
2023-05-04T12:28:59.439Z,9.98
2023-05-04T12:31:28.634Z,8.25
2023-05-04T12:33:58.078Z,8.25
2023-05-04T12:36:26.023Z,8.85
2023-05-04T12:38:54.033Z,13.57
2023-05-04T12:41:22.560Z,8.27
2023-05-04T12:43:50.959Z,7.80
2023-05-04T12:46:21.493Z,15.18
2023-05-04T12:48:49.659Z,8.90
2023-05-04T12:51:19.016Z,10.90
2023-05-04T12:53:47.061Z,8.73
2023-05-04T12:56:15.067Z,8.23
2023-05-04T12:58:43.079Z,8.77
2023-05-04T13:01:11.144Z,18.58
2023-05-04T13:03:39.654Z,9.07
2023-05-04T13:06:08.369Z,11.63
2023-05-04T13:08:37.722Z,8.57
2023-05-04T13:11:05.743Z,9.70
2023-05-04T13:13:33.835Z,8.40
2023-05-04T13:16:02.097Z,7.15
2023-05-04T13:18:30.415Z,9.88
2023-05-04T13:20:58.508Z,9.60
2023-05-04T13:23:26.515Z,6.95
2023-05-04T13:25:56.316Z,12.40
2023-05-04T13:28:24.361Z,9.45
2023-05-04T13:30:52.818Z,24.85
2023-05-04T13:33:29.596Z,8.32
2023-05-04T13:35:58.984Z,12.35
2023-05-04T13:38:27.312Z,14.05
2023-05-04T13:40:57.082Z,12.40
2023-05-04T13:43:25.580Z,10.32
2023-05-04T13:45:53.660Z,13.48
2023-05-04T13:48:21.641Z,9.77
2023-05-04T13:50:49.656Z,10.65
2023-05-04T13:53:17.734Z,9.57
2023-05-04T13:55:45.749Z,5.95
2023-05-04T13:58:15.072Z,10.05
2023-05-04T14:00:43.309Z,8.35
2023-05-04T14:03:11.661Z,7.32
2023-05-04T14:05:39.631Z,11.45
2023-05-04T14:08:07.782Z,7.28
2023-05-04T14:10:37.587Z,6.65
2023-05-04T14:13:06.232Z,9.18
2023-05-04T14:15:35.815Z,7.95
2023-05-04T14:18:04.115Z,5.95
2023-05-04T14:20:33.639Z,8.80
2023-05-04T14:23:01.641Z,8.95
2023-05-04T14:25:29.584Z,6.05
2023-05-04T14:27:57.620Z,7.97
2023-05-04T14:30:26.548Z,10.23
2023-05-04T14:32:56.823Z,8.07
2023-05-04T14:35:25.259Z,10.82
2023-05-04T14:37:53.325Z,6.25
2023-05-04T14:40:21.517Z,7.78
2023-05-04T14:42:49.473Z,7.32
2023-05-04T14:45:17.978Z,7.53
2023-05-04T14:47:46.237Z,5.90
2023-05-04T14:50:15.640Z,6.60
2023-05-04T14:52:43.636Z,7.78
2023-05-04T14:55:12.083Z,10.00
2023-05-04T14:57:40.251Z,7.68
2023-05-04T15:00:10.006Z,11.73
2023-05-04T15:02:39.216Z,6.65
2023-05-04T15:05:09.833Z,8.65
2023-05-04T15:07:39.266Z,5.90
2023-05-04T15:10:09.031Z,7.85
2023-05-04T15:12:38.306Z,8.40
2023-05-04T15:15:07.148Z,7.03
2023-05-04T15:17:35.166Z,5.80
2023-05-04T15:20:03.365Z,7.03
2023-05-04T15:22:31.504Z,7.53
2023-05-04T15:25:01.778Z,7.68
2023-05-04T15:27:29.743Z,6.65
2023-05-04T15:29:57.983Z,9.85
2023-05-04T15:32:26.100Z,8.52
2023-05-04T15:35:04.390Z,6.65
2023-05-04T15:37:33.609Z,6.60
2023-05-04T15:40:04.585Z,8.32
2023-05-04T15:42:32.913Z,6.85
2023-05-04T15:45:01.218Z,9.23
2023-05-04T15:47:29.247Z,9.88
2023-05-04T15:49:57.264Z,7.65
2023-05-04T15:52:25.473Z,8.70
2023-05-04T15:54:53.430Z,9.38
2023-05-04T15:57:22.906Z,8.45
2023-05-04T15:59:50.863Z,9.15
2023-05-04T16:02:18.890Z,7.25
2023-05-04T16:04:46.953Z,8.80
2023-05-04T16:07:14.970Z,8.27
2023-05-04T16:09:42.953Z,10.48
2023-05-04T16:12:11.119Z,7.18
2023-05-04T16:14:40.697Z,6.47
2023-05-04T16:17:09.363Z,6.43
2023-05-04T16:19:37.349Z,8.88
2023-05-04T16:22:05.409Z,8.38
2023-05-04T16:24:34.011Z,8.38
2023-05-04T16:27:02.024Z,12.50
2023-05-04T16:29:29.992Z,8.85
2023-05-04T16:31:59.339Z,8.98
2023-05-04T16:34:27.356Z,9.45
2023-05-04T16:36:55.468Z,8.38
2023-05-04T16:39:27.451Z,6.70
2023-05-04T16:41:55.435Z,8.57
2023-05-04T16:44:23.605Z,8.30
2023-05-04T16:46:52.103Z,7.30
2023-05-04T16:49:22.526Z,7.50
2023-05-04T16:51:50.596Z,9.32
2023-05-04T16:54:20.968Z,6.88
2023-05-04T16:56:49.146Z,7.93
2023-05-04T16:59:17.466Z,8.75
2023-05-04T17:01:45.582Z,9.88
2023-05-04T17:04:13.617Z,7.00
2023-05-04T17:06:43.113Z,7.80
2023-05-04T17:09:11.277Z,9.90
2023-05-04T17:11:39.308Z,7.30
2023-05-04T17:14:07.341Z,8.38
2023-05-04T17:16:35.499Z,7.93
2023-05-04T17:19:03.640Z,7.45
2023-05-04T17:21:31.614Z,7.82
2023-05-04T17:24:00.946Z,6.65
2023-05-04T17:26:29.344Z,7.13
2023-05-04T17:28:57.364Z,7.93
2023-05-04T17:31:25.396Z,7.07
2023-05-04T17:33:53.404Z,8.88
2023-05-04T17:36:21.441Z,8.45
2023-05-04T17:38:49.436Z,7.47
2023-05-04T17:41:18.806Z,6.13
2023-05-04T17:43:47.327Z,5.68
2023-05-04T17:46:15.425Z,6.20
2023-05-04T17:48:44.605Z,8.45
2023-05-04T17:51:12.596Z,7.45
2023-05-04T17:53:40.613Z,5.80
2023-05-04T17:56:08.601Z,8.82
2023-05-04T17:58:38.066Z,7.22
2023-05-04T18:01:06.141Z,5.73
2023-05-04T18:03:34.246Z,7.43
2023-05-04T18:06:02.712Z,8.32
2023-05-04T18:08:30.700Z,8.73
2023-05-04T18:10:58.678Z,6.72
2023-05-04T18:13:26.846Z,8.68
2023-05-04T18:15:56.206Z,8.73
2023-05-04T18:18:24.269Z,7.50
2023-05-04T18:20:52.376Z,6.28
2023-05-04T18:23:20.369Z,10.15
2023-05-04T18:25:48.356Z,8.02
2023-05-04T18:28:17.326Z,7.72
2023-05-04T18:30:45.929Z,9.05
2023-05-04T18:33:15.464Z,11.82
2023-05-04T18:35:43.514Z,11.43
2023-05-04T18:38:11.686Z,10.65
2023-05-04T18:40:39.645Z,9.65
2023-05-04T18:43:07.673Z,10.00
2023-05-04T18:45:35.783Z,12.00
2023-05-04T18:48:03.802Z,8.57
2023-05-04T18:50:33.230Z,9.93
2023-05-04T18:53:01.551Z,12.00
2023-05-04T18:55:29.570Z,11.27
2023-05-04T18:57:57.628Z,9.83
2023-05-04T19:00:25.761Z,10.67
2023-05-04T19:02:53.958Z,10.00
2023-05-04T19:05:21.999Z,8.80
2023-05-04T19:07:51.327Z,14.65
2023-05-04T19:10:19.513Z,11.23
2023-05-04T19:12:47.581Z,13.95
2023-05-04T19:15:16.296Z,13.48
2023-05-04T19:17:44.333Z,13.17
2023-05-04T19:20:12.826Z,11.20
2023-05-04T19:22:40.771Z,13.70
2023-05-04T19:25:12.303Z,14.33
2023-05-04T19:27:46.477Z,12.50
2023-05-04T19:30:15.704Z,11.75
2023-05-04T19:32:43.664Z,11.17
2023-05-04T19:35:12.063Z,12.00
2023-05-04T19:37:40.455Z,11.63
2023-05-04T19:40:11.158Z,14.67
2023-05-04T19:42:39.867Z,12.77
2023-05-04T19:45:09.482Z,12.70
2023-05-04T19:47:38.354Z,12.70
2023-05-04T19:50:07.384Z,13.60
2023-05-04T19:52:36.319Z,12.13
2023-05-04T19:55:04.458Z,11.13
2023-05-04T19:57:33.822Z,10.53
2023-05-04T20:00:02.163Z,13.53
2023-05-04T20:02:31.157Z,13.67
2023-05-04T20:04:59.170Z,11.03
2023-05-04T20:07:27.233Z,13.77
2023-05-04T20:09:55.586Z,12.43
2023-05-04T20:12:23.605Z,11.97
2023-05-04T20:14:52.987Z,14.17
2023-05-04T20:17:20.975Z,15.90
2023-05-04T20:19:49.247Z,12.00
2023-05-04T20:22:17.397Z,15.83
2023-05-04T20:24:45.400Z,14.80
2023-05-04T20:27:13.523Z,12.53
2023-05-04T20:29:41.543Z,14.57
2023-05-04T20:32:11.281Z,13.10
2023-05-04T20:34:39.739Z,14.30
2023-05-04T20:37:07.770Z,12.75
2023-05-04T20:39:35.774Z,13.68
2023-05-04T20:42:05.676Z,10.65
2023-05-04T20:44:34.392Z,11.55
2023-05-04T20:47:02.514Z,13.90
2023-05-04T20:49:31.950Z,14.20
2023-05-04T20:51:59.922Z,10.43
2023-05-04T20:54:27.907Z,12.73
2023-05-04T20:56:55.918Z,13.33
2023-05-04T20:59:23.892Z,12.43
2023-05-04T21:01:51.936Z,11.02
2023-05-04T21:04:20.026Z,12.73
2023-05-04T21:06:49.378Z,11.10
2023-05-04T21:09:17.489Z,12.25
2023-05-04T21:11:45.478Z,11.07
2023-05-04T21:14:13.496Z,12.82
2023-05-04T21:16:41.491Z,13.20
2023-05-04T21:19:09.477Z,14.55
2023-05-04T21:21:40.801Z,11.30
2023-05-04T21:24:14.206Z,15.35
2023-05-04T21:26:42.361Z,11.88
2023-05-04T21:29:13.701Z,11.23
2023-05-04T21:31:42.336Z,17.30
2023-05-04T21:34:10.446Z,14.27
2023-05-04T21:36:40.401Z,12.88
2023-05-04T21:39:08.392Z,14.53
2023-05-04T21:41:38.776Z,13.27
2023-05-04T21:44:06.848Z,14.00
2023-05-04T21:46:34.857Z,16.23
2023-05-04T21:49:02.885Z,15.30
2023-05-04T21:51:31.744Z,13.83
2023-05-04T21:53:59.724Z,11.70
2023-05-04T21:56:27.657Z,13.50
2023-05-04T21:58:57.025Z,14.40
2023-05-04T22:01:25.015Z,17.17
2023-05-04T22:03:53.074Z,17.67
2023-05-04T22:06:22.116Z,14.57
2023-05-04T22:08:50.089Z,16.43
2023-05-04T22:11:18.066Z,21.07
2023-05-04T22:13:46.045Z,16.87
2023-05-04T22:16:15.891Z,13.73
2023-05-04T22:18:43.916Z,14.63
2023-05-04T22:21:11.886Z,13.20
2023-05-04T22:23:39.941Z,13.60
2023-05-04T22:26:07.939Z,13.03
2023-05-04T22:28:35.902Z,10.90
2023-05-04T22:31:03.946Z,14.43
2023-05-04T22:33:33.332Z,13.48
2023-05-04T22:36:01.414Z,14.67
2023-05-04T22:38:29.422Z,12.03
2023-05-04T22:40:57.397Z,14.83
2023-05-04T22:43:25.434Z,12.87
2023-05-04T22:45:53.535Z,13.80
2023-05-04T22:48:21.526Z,12.90
2023-05-04T22:50:51.171Z,12.03
2023-05-04T22:53:19.133Z,14.87
2023-05-04T22:55:47.134Z,14.40
2023-05-04T22:58:15.116Z,16.17
2023-05-04T23:00:43.176Z,15.37
2023-05-04T23:03:11.334Z,13.57
2023-05-04T23:05:39.406Z,17.60
2023-05-04T23:08:08.749Z,19.43
2023-05-04T23:10:36.785Z,19.30
2023-05-04T23:13:04.787Z,18.50
2023-05-04T23:15:32.731Z,19.33
2023-05-04T23:18:00.798Z,22.27
2023-05-04T23:20:28.809Z,18.70
2023-05-04T23:22:56.811Z,22.83
2023-05-04T23:25:26.783Z,24.67
2023-05-04T23:27:54.772Z,19.83
2023-05-04T23:30:22.825Z,23.40
2023-05-04T23:32:50.880Z,21.27
2023-05-04T23:35:19.022Z,21.73
2023-05-04T23:37:47.111Z,22.50
2023-05-04T23:40:15.218Z,25.53
2023-05-04T23:42:44.567Z,20.67
2023-05-04T23:45:13.003Z,19.37
2023-05-04T23:47:40.969Z,22.13
2023-05-04T23:50:10.249Z,22.27
2023-05-04T23:52:38.409Z,16.73
2023-05-04T23:55:07.884Z,20.97
2023-05-04T23:57:36.407Z,23.50
